sensor_id;sensor_type;location;lat;lon;timestamp;P1;durP1;ratioP1;P2;durP2;ratioP2
22916;SDS011;11624;53.250;7.456;2023-02-28T00:01:34;18.67;;;6.53;;
22916;SDS011;11624;53.250;7.456;2023-02-28T00:04:04;18.00;;;6.20;;
22916;SDS011;11624;53.250;7.456;2023-02-28T00:06:32;16.80;;;5.73;;
22916;SDS011;11624;53.250;7.456;2023-02-28T00:09:01;18.20;;;6.63;;
22916;SDS011;11624;53.250;7.456;2023-02-28T00:11:29;18.00;;;6.10;;
22916;SDS011;11624;53.250;7.456;2023-02-28T00:13:59;15.40;;;5.87;;
22916;SDS011;11624;53.250;7.456;2023-02-28T00:16:27;15.40;;;5.43;;
22916;SDS011;11624;53.250;7.456;2023-02-28T00:18:56;16.63;;;5.77;;
22916;SDS011;11624;53.250;7.456;2023-02-28T00:21:25;20.93;;;6.00;;
22916;SDS011;11624;53.250;7.456;2023-02-28T00:23:54;14.30;;;5.50;;
22916;SDS011;11624;53.250;7.456;2023-02-28T00:26:22;17.98;;;6.10;;
22916;SDS011;11624;53.250;7.456;2023-02-28T00:28:51;13.20;;;5.50;;
22916;SDS011;11624;53.250;7.456;2023-02-28T00:31:21;18.30;;;6.20;;
22916;SDS011;11624;53.250;7.456;2023-02-28T00:36:41;16.47;;;5.87;;
22916;SDS011;11624;53.250;7.456;2023-02-28T00:39:11;17.23;;;6.23;;
22916;SDS011;11624;53.250;7.456;2023-02-28T00:41:39;19.63;;;5.73;;
22916;SDS011;11624;53.250;7.456;2023-02-28T00:44:07;16.17;;;5.77;;
22916;SDS011;11624;53.250;7.456;2023-02-28T00:46:35;14.77;;;6.00;;
22916;SDS011;11624;53.250;7.456;2023-02-28T00:49:03;14.87;;;6.23;;
22916;SDS011;11624;53.250;7.456;2023-02-28T00:51:32;14.23;;;6.00;;
22916;SDS011;11624;53.250;7.456;2023-02-28T00:54:01;16.63;;;6.20;;
22916;SDS011;11624;53.250;7.456;2023-02-28T00:56:29;16.30;;;6.13;;
22916;SDS011;11624;53.250;7.456;2023-02-28T00:58:57;16.27;;;6.47;;
22916;SDS011;11624;53.250;7.456;2023-02-28T01:01:25;15.70;;;6.33;;
22916;SDS011;11624;53.250;7.456;2023-02-28T01:03:54;16.27;;;6.00;;
22916;SDS011;11624;53.250;7.456;2023-02-28T01:06:22;16.52;;;6.13;;
22916;SDS011;11624;53.250;7.456;2023-02-28T01:08:50;17.23;;;5.63;;
22916;SDS011;11624;53.250;7.456;2023-02-28T01:11:20;15.13;;;5.23;;
22916;SDS011;11624;53.250;7.456;2023-02-28T01:13:48;14.93;;;5.13;;
22916;SDS011;11624;53.250;7.456;2023-02-28T01:16:16;13.73;;;5.33;;
22916;SDS011;11624;53.250;7.456;2023-02-28T01:18:44;14.83;;;5.43;;
22916;SDS011;11624;53.250;7.456;2023-02-28T01:21:13;14.10;;;5.03;;
22916;SDS011;11624;53.250;7.456;2023-02-28T01:23:43;16.90;;;5.33;;
22916;SDS011;11624;53.250;7.456;2023-02-28T01:26:17;15.80;;;4.93;;
22916;SDS011;11624;53.250;7.456;2023-02-28T01:28:49;12.47;;;4.83;;
22916;SDS011;11624;53.250;7.456;2023-02-28T01:31:18;13.48;;;4.60;;
22916;SDS011;11624;53.250;7.456;2023-02-28T01:33:48;14.43;;;5.37;;
22916;SDS011;11624;53.250;7.456;2023-02-28T01:36:17;13.73;;;5.03;;
22916;SDS011;11624;53.250;7.456;2023-02-28T01:38:47;15.17;;;5.57;;
22916;SDS011;11624;53.250;7.456;2023-02-28T01:41:16;16.67;;;5.70;;
22916;SDS011;11624;53.250;7.456;2023-02-28T01:43:56;17.07;;;6.27;;
22916;SDS011;11624;53.250;7.456;2023-02-28T01:46:26;19.57;;;5.90;;
22916;SDS011;11624;53.250;7.456;2023-02-28T01:48:56;17.20;;;6.07;;
22916;SDS011;11624;53.250;7.456;2023-02-28T01:51:31;15.93;;;5.83;;
22916;SDS011;11624;53.250;7.456;2023-02-28T01:54:05;17.13;;;5.70;;
22916;SDS011;11624;53.250;7.456;2023-02-28T01:56:41;14.70;;;5.67;;
22916;SDS011;11624;53.250;7.456;2023-02-28T01:59:20;14.60;;;5.70;;
22916;SDS011;11624;53.250;7.456;2023-02-28T02:01:51;20.93;;;5.87;;
22916;SDS011;11624;53.250;7.456;2023-02-28T02:04:21;16.37;;;5.83;;
22916;SDS011;11624;53.250;7.456;2023-02-28T02:06:51;18.43;;;6.23;;
22916;SDS011;11624;53.250;7.456;2023-02-28T02:09:19;15.37;;;6.20;;
22916;SDS011;11624;53.250;7.456;2023-02-28T02:11:47;18.17;;;6.43;;
22916;SDS011;11624;53.250;7.456;2023-02-28T02:14:30;19.07;;;6.93;;
22916;SDS011;11624;53.250;7.456;2023-02-28T02:17:10;18.17;;;5.57;;
22916;SDS011;11624;53.250;7.456;2023-02-28T02:19:59;17.53;;;6.10;;
22916;SDS011;11624;53.250;7.456;2023-02-28T02:23:01;14.37;;;5.73;;
22916;SDS011;11624;53.250;7.456;2023-02-28T02:25:55;16.50;;;6.33;;
22916;SDS011;11624;53.250;7.456;2023-02-28T02:28:34;17.73;;;5.37;;
22916;SDS011;11624;53.250;7.456;2023-02-28T02:34:27;17.03;;;6.43;;
22916;SDS011;11624;53.250;7.456;2023-02-28T02:37:08;20.57;;;6.40;;
22916;SDS011;11624;53.250;7.456;2023-02-28T02:39:45;15.53;;;5.83;;
22916;SDS011;11624;53.250;7.456;2023-02-28T02:42:20;15.63;;;5.90;;
22916;SDS011;11624;53.250;7.456;2023-02-28T02:44:55;17.13;;;6.07;;
22916;SDS011;11624;53.250;7.456;2023-02-28T02:47:27;16.70;;;6.10;;
22916;SDS011;11624;53.250;7.456;2023-02-28T02:49:59;16.20;;;5.93;;
22916;SDS011;11624;53.250;7.456;2023-02-28T02:52:34;19.17;;;6.80;;
22916;SDS011;11624;53.250;7.456;2023-02-28T02:55:06;16.90;;;6.77;;
22916;SDS011;11624;53.250;7.456;2023-02-28T02:57:38;16.30;;;6.80;;
22916;SDS011;11624;53.250;7.456;2023-02-28T03:00:12;17.73;;;7.30;;
22916;SDS011;11624;53.250;7.456;2023-02-28T03:02:45;20.27;;;7.00;;
22916;SDS011;11624;53.250;7.456;2023-02-28T03:05:19;20.33;;;7.60;;
22916;SDS011;11624;53.250;7.456;2023-02-28T03:07:50;17.17;;;7.27;;
22916;SDS011;11624;53.250;7.456;2023-02-28T03:10:25;18.70;;;7.60;;
22916;SDS011;11624;53.250;7.456;2023-02-28T03:12:59;19.10;;;7.43;;
22916;SDS011;11624;53.250;7.456;2023-02-28T03:15:34;20.83;;;8.37;;
22916;SDS011;11624;53.250;7.456;2023-02-28T03:18:12;22.53;;;7.67;;
22916;SDS011;11624;53.250;7.456;2023-02-28T03:20:51;19.13;;;7.73;;
22916;SDS011;11624;53.250;7.456;2023-02-28T03:23:27;22.40;;;7.90;;
22916;SDS011;11624;53.250;7.456;2023-02-28T03:26:03;18.23;;;7.23;;
22916;SDS011;11624;53.250;7.456;2023-02-28T03:28:36;21.33;;;7.93;;
22916;SDS011;11624;53.250;7.456;2023-02-28T03:31:13;18.43;;;7.83;;
22916;SDS011;11624;53.250;7.456;2023-02-28T03:33:44;20.47;;;7.77;;
22916;SDS011;11624;53.250;7.456;2023-02-28T03:36:23;19.20;;;7.00;;
22916;SDS011;11624;53.250;7.456;2023-02-28T03:38:54;18.23;;;6.93;;
22916;SDS011;11624;53.250;7.456;2023-02-28T03:41:30;18.47;;;7.60;;
22916;SDS011;11624;53.250;7.456;2023-02-28T03:44:03;21.67;;;7.17;;
22916;SDS011;11624;53.250;7.456;2023-02-28T03:46:35;18.33;;;7.60;;
22916;SDS011;11624;53.250;7.456;2023-02-28T03:49:09;24.67;;;7.87;;
22916;SDS011;11624;53.250;7.456;2023-02-28T03:51:44;17.37;;;6.97;;
22916;SDS011;11624;53.250;7.456;2023-02-28T03:54:15;20.90;;;6.90;;
22916;SDS011;11624;53.250;7.456;2023-02-28T03:56:47;17.40;;;7.63;;
22916;SDS011;11624;53.250;7.456;2023-02-28T03:59:22;18.93;;;6.70;;
22916;SDS011;11624;53.250;7.456;2023-02-28T04:01:55;18.03;;;6.97;;
22916;SDS011;11624;53.250;7.456;2023-02-28T04:04:25;18.33;;;7.07;;
22916;SDS011;11624;53.250;7.456;2023-02-28T04:07:00;17.00;;;6.70;;
22916;SDS011;11624;53.250;7.456;2023-02-28T04:09:29;17.10;;;6.60;;
22916;SDS011;11624;53.250;7.456;2023-02-28T04:11:57;16.30;;;6.63;;
22916;SDS011;11624;53.250;7.456;2023-02-28T04:14:25;16.87;;;6.53;;
22916;SDS011;11624;53.250;7.456;2023-02-28T04:16:54;23.90;;;8.20;;
22916;SDS011;11624;53.250;7.456;2023-02-28T04:19:22;20.10;;;8.23;;
22916;SDS011;11624;53.250;7.456;2023-02-28T04:21:50;19.43;;;8.07;;
22916;SDS011;11624;53.250;7.456;2023-02-28T04:24:21;17.57;;;7.50;;
22916;SDS011;11624;53.250;7.456;2023-02-28T04:26:52;19.07;;;7.13;;
22916;SDS011;11624;53.250;7.456;2023-02-28T04:29:23;21.53;;;7.23;;
22916;SDS011;11624;53.250;7.456;2023-02-28T04:31:52;19.23;;;7.10;;
22916;SDS011;11624;53.250;7.456;2023-02-28T04:34:22;17.57;;;7.07;;
22916;SDS011;11624;53.250;7.456;2023-02-28T04:36:51;21.30;;;7.63;;
22916;SDS011;11624;53.250;7.456;2023-02-28T04:39:39;21.37;;;7.30;;
22916;SDS011;11624;53.250;7.456;2023-02-28T04:42:08;16.63;;;6.40;;
22916;SDS011;11624;53.250;7.456;2023-02-28T04:44:36;21.47;;;7.13;;
22916;SDS011;11624;53.250;7.456;2023-02-28T04:47:04;17.70;;;7.40;;
22916;SDS011;11624;53.250;7.456;2023-02-28T04:49:32;17.87;;;7.40;;
22916;SDS011;11624;53.250;7.456;2023-02-28T04:52:00;20.33;;;7.53;;
22916;SDS011;11624;53.250;7.456;2023-02-28T04:54:28;17.90;;;7.33;;
22916;SDS011;11624;53.250;7.456;2023-02-28T04:56:58;16.50;;;7.33;;
22916;SDS011;11624;53.250;7.456;2023-02-28T04:59:27;22.17;;;7.90;;
22916;SDS011;11624;53.250;7.456;2023-02-28T05:01:55;16.83;;;7.73;;
22916;SDS011;11624;53.250;7.456;2023-02-28T05:04:23;17.10;;;7.07;;
22916;SDS011;11624;53.250;7.456;2023-02-28T05:06:51;18.50;;;7.67;;
22916;SDS011;11624;53.250;7.456;2023-02-28T05:09:19;17.77;;;7.20;;
22916;SDS011;11624;53.250;7.456;2023-02-28T05:11:47;21.20;;;7.80;;
22916;SDS011;11624;53.250;7.456;2023-02-28T05:14:17;21.50;;;7.53;;
22916;SDS011;11624;53.250;7.456;2023-02-28T05:16:45;16.10;;;6.87;;
22916;SDS011;11624;53.250;7.456;2023-02-28T05:19:13;21.87;;;7.70;;
22916;SDS011;11624;53.250;7.456;2023-02-28T05:21:41;23.03;;;7.83;;
22916;SDS011;11624;53.250;7.456;2023-02-28T05:24:17;23.20;;;8.10;;
22916;SDS011;11624;53.250;7.456;2023-02-28T05:26:49;17.23;;;7.13;;
22916;SDS011;11624;53.250;7.456;2023-02-28T05:29:20;16.63;;;7.13;;
22916;SDS011;11624;53.250;7.456;2023-02-28T05:31:49;22.03;;;7.17;;
22916;SDS011;11624;53.250;7.456;2023-02-28T05:34:17;18.47;;;7.20;;
22916;SDS011;11624;53.250;7.456;2023-02-28T05:36:45;18.57;;;7.53;;
22916;SDS011;11624;53.250;7.456;2023-02-28T05:39:13;19.03;;;6.83;;
22916;SDS011;11624;53.250;7.456;2023-02-28T05:41:42;20.77;;;7.43;;
22916;SDS011;11624;53.250;7.456;2023-02-28T05:44:10;20.90;;;7.93;;
22916;SDS011;11624;53.250;7.456;2023-02-28T05:46:40;22.40;;;8.10;;
22916;SDS011;11624;53.250;7.456;2023-02-28T05:49:08;23.23;;;8.17;;
22916;SDS011;11624;53.250;7.456;2023-02-28T05:51:36;22.30;;;8.13;;
22916;SDS011;11624;53.250;7.456;2023-02-28T05:54:06;25.57;;;8.67;;
22916;SDS011;11624;53.250;7.456;2023-02-28T05:56:34;20.20;;;8.67;;
22916;SDS011;11624;53.250;7.456;2023-02-28T05:59:05;24.47;;;8.30;;
22916;SDS011;11624;53.250;7.456;2023-02-28T06:01:34;23.83;;;9.07;;
22916;SDS011;11624;53.250;7.456;2023-02-28T06:04:05;25.70;;;8.40;;
22916;SDS011;11624;53.250;7.456;2023-02-28T06:06:42;25.03;;;9.93;;
22916;SDS011;11624;53.250;7.456;2023-02-28T06:09:10;28.27;;;8.90;;
22916;SDS011;11624;53.250;7.456;2023-02-28T06:11:38;23.47;;;9.27;;
22916;SDS011;11624;53.250;7.456;2023-02-28T06:14:06;26.47;;;9.13;;
22916;SDS011;11624;53.250;7.456;2023-02-28T06:16:40;23.50;;;9.87;;
22916;SDS011;11624;53.250;7.456;2023-02-28T06:19:10;27.07;;;9.53;;
22916;SDS011;11624;53.250;7.456;2023-02-28T06:21:39;25.23;;;9.17;;
22916;SDS011;11624;53.250;7.456;2023-02-28T06:24:07;25.23;;;9.23;;
22916;SDS011;11624;53.250;7.456;2023-02-28T06:26:35;24.17;;;9.43;;
22916;SDS011;11624;53.250;7.456;2023-02-28T06:29:03;25.37;;;9.30;;
22916;SDS011;11624;53.250;7.456;2023-02-28T06:31:31;26.13;;;9.40;;
22916;SDS011;11624;53.250;7.456;2023-02-28T06:34:00;24.27;;;10.00;;
22916;SDS011;11624;53.250;7.456;2023-02-28T06:36:29;25.63;;;10.17;;
22916;SDS011;11624;53.250;7.456;2023-02-28T06:38:58;26.33;;;9.97;;
22916;SDS011;11624;53.250;7.456;2023-02-28T06:41:26;26.80;;;11.07;;
22916;SDS011;11624;53.250;7.456;2023-02-28T06:43:56;23.83;;;9.97;;
22916;SDS011;11624;53.250;7.456;2023-02-28T06:46:24;30.50;;;10.63;;
22916;SDS011;11624;53.250;7.456;2023-02-28T06:48:52;23.70;;;10.37;;
22916;SDS011;11624;53.250;7.456;2023-02-28T06:51:21;23.87;;;9.97;;
22916;SDS011;11624;53.250;7.456;2023-02-28T06:53:52;25.80;;;11.07;;
22916;SDS011;11624;53.250;7.456;2023-02-28T06:56:20;25.33;;;11.20;;
22916;SDS011;11624;53.250;7.456;2023-02-28T06:58:48;27.77;;;11.40;;
22916;SDS011;11624;53.250;7.456;2023-02-28T07:01:18;23.20;;;10.47;;
22916;SDS011;11624;53.250;7.456;2023-02-28T07:03:49;24.87;;;9.77;;
22916;SDS011;11624;53.250;7.456;2023-02-28T07:06:18;23.23;;;10.63;;
22916;SDS011;11624;53.250;7.456;2023-02-28T07:08:49;29.37;;;10.40;;
22916;SDS011;11624;53.250;7.456;2023-02-28T07:11:19;25.93;;;11.50;;
22916;SDS011;11624;53.250;7.456;2023-02-28T07:13:48;25.83;;;10.60;;
22916;SDS011;11624;53.250;7.456;2023-02-28T07:16:17;27.10;;;11.70;;
22916;SDS011;11624;53.250;7.456;2023-02-28T07:18:46;32.90;;;11.47;;
22916;SDS011;11624;53.250;7.456;2023-02-28T07:21:14;31.90;;;11.83;;
22916;SDS011;11624;53.250;7.456;2023-02-28T07:23:43;30.63;;;13.50;;
22916;SDS011;11624;53.250;7.456;2023-02-28T07:26:11;39.07;;;13.40;;
22916;SDS011;11624;53.250;7.456;2023-02-28T07:28:43;37.80;;;13.90;;
22916;SDS011;11624;53.250;7.456;2023-02-28T07:31:13;35.57;;;14.20;;
22916;SDS011;11624;53.250;7.456;2023-02-28T07:33:42;29.63;;;12.60;;
22916;SDS011;11624;53.250;7.456;2023-02-28T07:36:10;26.80;;;11.80;;
22916;SDS011;11624;53.250;7.456;2023-02-28T07:38:41;31.43;;;11.10;;
22916;SDS011;11624;53.250;7.456;2023-02-28T07:41:13;25.60;;;11.70;;
22916;SDS011;11624;53.250;7.456;2023-02-28T07:43:44;30.67;;;13.73;;
22916;SDS011;11624;53.250;7.456;2023-02-28T07:46:13;29.90;;;14.57;;
22916;SDS011;11624;53.250;7.456;2023-02-28T07:48:42;27.93;;;13.80;;
22916;SDS011;11624;53.250;7.456;2023-02-28T07:51:11;26.58;;;12.85;;
22916;SDS011;11624;53.250;7.456;2023-02-28T07:53:39;22.87;;;11.10;;
22916;SDS011;11624;53.250;7.456;2023-02-28T07:56:07;23.95;;;10.50;;
22916;SDS011;11624;53.250;7.456;2023-02-28T07:58:37;22.58;;;10.63;;
22916;SDS011;11624;53.250;7.456;2023-02-28T08:01:07;22.55;;;10.00;;
22916;SDS011;11624;53.250;7.456;2023-02-28T08:03:37;21.40;;;10.27;;
22916;SDS011;11624;53.250;7.456;2023-02-28T08:06:07;21.23;;;9.50;;
22916;SDS011;11624;53.250;7.456;2023-02-28T08:08:42;21.95;;;9.82;;
22916;SDS011;11624;53.250;7.456;2023-02-28T08:11:10;25.73;;;9.68;;
22916;SDS011;11624;53.250;7.456;2023-02-28T08:13:39;21.30;;;11.23;;
22916;SDS011;11624;53.250;7.456;2023-02-28T08:16:10;24.33;;;11.63;;
22916;SDS011;11624;53.250;7.456;2023-02-28T08:18:40;28.38;;;14.27;;
22916;SDS011;11624;53.250;7.456;2023-02-28T08:21:09;30.90;;;14.80;;
22916;SDS011;11624;53.250;7.456;2023-02-28T08:23:38;29.38;;;13.98;;
22916;SDS011;11624;53.250;7.456;2023-02-28T08:26:06;34.83;;;15.73;;
22916;SDS011;11624;53.250;7.456;2023-02-28T08:28:34;36.97;;;17.25;;
22916;SDS011;11624;53.250;7.456;2023-02-28T08:31:06;91.15;;;17.80;;
22916;SDS011;11624;53.250;7.456;2023-02-28T08:33:37;36.05;;;14.60;;
22916;SDS011;11624;53.250;7.456;2023-02-28T08:36:05;81.72;;;19.23;;
22916;SDS011;11624;53.250;7.456;2023-02-28T08:38:35;35.22;;;15.35;;
22916;SDS011;11624;53.250;7.456;2023-02-28T08:41:04;36.30;;;16.63;;
22916;SDS011;11624;53.250;7.456;2023-02-28T08:43:34;29.83;;;16.27;;
22916;SDS011;11624;53.250;7.456;2023-02-28T08:46:03;33.35;;;14.68;;
22916;SDS011;11624;53.250;7.456;2023-02-28T08:48:33;30.17;;;14.05;;
22916;SDS011;11624;53.250;7.456;2023-02-28T08:51:06;25.83;;;13.55;;
22916;SDS011;11624;53.250;7.456;2023-02-28T08:53:36;24.35;;;12.75;;
22916;SDS011;11624;53.250;7.456;2023-02-28T08:56:06;23.88;;;12.45;;
22916;SDS011;11624;53.250;7.456;2023-02-28T08:58:36;24.77;;;12.00;;
22916;SDS011;11624;53.250;7.456;2023-02-28T09:01:08;24.83;;;12.50;;
22916;SDS011;11624;53.250;7.456;2023-02-28T09:03:37;23.35;;;11.95;;
22916;SDS011;11624;53.250;7.456;2023-02-28T09:06:09;26.98;;;12.93;;
22916;SDS011;11624;53.250;7.456;2023-02-28T09:08:38;24.48;;;13.25;;
22916;SDS011;11624;53.250;7.456;2023-02-28T09:11:07;26.30;;;13.02;;
22916;SDS011;11624;53.250;7.456;2023-02-28T09:13:35;25.83;;;12.90;;
22916;SDS011;11624;53.250;7.456;2023-02-28T09:16:04;22.95;;;12.20;;
22916;SDS011;11624;53.250;7.456;2023-02-28T09:18:34;25.25;;;12.38;;
22916;SDS011;11624;53.250;7.456;2023-02-28T09:21:04;27.42;;;11.80;;
22916;SDS011;11624;53.250;7.456;2023-02-28T09:23:34;25.33;;;11.55;;
22916;SDS011;11624;53.250;7.456;2023-02-28T09:26:04;23.05;;;12.40;;
22916;SDS011;11624;53.250;7.456;2023-02-28T09:28:33;21.95;;;10.73;;
22916;SDS011;11624;53.250;7.456;2023-02-28T09:31:01;25.63;;;11.90;;
22916;SDS011;11624;53.250;7.456;2023-02-28T09:33:31;23.35;;;11.75;;
22916;SDS011;11624;53.250;7.456;2023-02-28T09:36:00;24.00;;;10.73;;
22916;SDS011;11624;53.250;7.456;2023-02-28T09:38:30;21.55;;;10.30;;
22916;SDS011;11624;53.250;7.456;2023-02-28T09:41:00;23.42;;;11.02;;
22916;SDS011;11624;53.250;7.456;2023-02-28T09:43:31;22.67;;;10.90;;
22916;SDS011;11624;53.250;7.456;2023-02-28T09:46:05;23.33;;;11.25;;
22916;SDS011;11624;53.250;7.456;2023-02-28T09:48:42;19.75;;;10.07;;
22916;SDS011;11624;53.250;7.456;2023-02-28T09:51:16;26.15;;;10.60;;
22916;SDS011;11624;53.250;7.456;2023-02-28T09:53:55;19.77;;;9.95;;
22916;SDS011;11624;53.250;7.456;2023-02-28T09:56:30;22.77;;;10.52;;
22916;SDS011;11624;53.250;7.456;2023-02-28T09:59:04;23.13;;;10.38;;
22916;SDS011;11624;53.250;7.456;2023-02-28T10:01:43;19.85;;;9.60;;
22916;SDS011;11624;53.250;7.456;2023-02-28T10:04:26;23.17;;;10.20;;
22916;SDS011;11624;53.250;7.456;2023-02-28T10:07:06;20.15;;;9.90;;
22916;SDS011;11624;53.250;7.456;2023-02-28T10:09:45;22.20;;;10.05;;
22916;SDS011;11624;53.250;7.456;2023-02-28T10:12:19;20.67;;;9.93;;
22916;SDS011;11624;53.250;7.456;2023-02-28T10:14:49;25.20;;;10.15;;
22916;SDS011;11624;53.250;7.456;2023-02-28T10:17:20;24.15;;;9.80;;
22916;SDS011;11624;53.250;7.456;2023-02-28T10:19:54;21.60;;;9.93;;
22916;SDS011;11624;53.250;7.456;2023-02-28T10:22:28;21.60;;;10.57;;
22916;SDS011;11624;53.250;7.456;2023-02-28T10:25:04;23.17;;;10.43;;
22916;SDS011;11624;53.250;7.456;2023-02-28T10:27:44;23.15;;;10.40;;
22916;SDS011;11624;53.250;7.456;2023-02-28T10:30:13;23.15;;;9.70;;
22916;SDS011;11624;53.250;7.456;2023-02-28T10:32:44;26.15;;;10.15;;
22916;SDS011;11624;53.250;7.456;2023-02-28T10:35:18;25.20;;;10.55;;
22916;SDS011;11624;53.250;7.456;2023-02-28T10:37:49;19.63;;;9.65;;
22916;SDS011;11624;53.250;7.456;2023-02-28T10:40:26;21.83;;;9.95;;
22916;SDS011;11624;53.250;7.456;2023-02-28T10:42:58;21.80;;;10.88;;
22916;SDS011;11624;53.250;7.456;2023-02-28T10:45:28;20.42;;;9.85;;
22916;SDS011;11624;53.250;7.456;2023-02-28T10:47:59;21.40;;;10.60;;
22916;SDS011;11624;53.250;7.456;2023-02-28T10:50:31;21.30;;;10.13;;
22916;SDS011;11624;53.250;7.456;2023-02-28T10:56:20;21.20;;;10.20;;
22916;SDS011;11624;53.250;7.456;2023-02-28T10:58:53;20.48;;;10.00;;
22916;SDS011;11624;53.250;7.456;2023-02-28T11:01:24;21.98;;;9.82;;
22916;SDS011;11624;53.250;7.456;2023-02-28T11:04:02;21.63;;;10.15;;
22916;SDS011;11624;53.250;7.456;2023-02-28T11:06:31;24.33;;;9.73;;
22916;SDS011;11624;53.250;7.456;2023-02-28T11:09:03;21.17;;;10.43;;
22916;SDS011;11624;53.250;7.456;2023-02-28T11:11:44;21.17;;;9.73;;
22916;SDS011;11624;53.250;7.456;2023-02-28T11:14:17;22.40;;;9.73;;
22916;SDS011;11624;53.250;7.456;2023-02-28T11:16:48;25.52;;;11.13;;
22916;SDS011;11624;53.250;7.456;2023-02-28T11:19:19;24.50;;;10.73;;
22916;SDS011;11624;53.250;7.456;2023-02-28T11:21:52;20.48;;;10.20;;
22916;SDS011;11624;53.250;7.456;2023-02-28T11:24:23;22.23;;;10.48;;
22916;SDS011;11624;53.250;7.456;2023-02-28T11:26:54;21.77;;;10.13;;
22916;SDS011;11624;53.250;7.456;2023-02-28T11:29:24;18.88;;;9.45;;
22916;SDS011;11624;53.250;7.456;2023-02-28T11:32:01;20.08;;;9.85;;
22916;SDS011;11624;53.250;7.456;2023-02-28T11:34:31;22.50;;;11.20;;
22916;SDS011;11624;53.250;7.456;2023-02-28T11:37:00;17.65;;;8.35;;
22916;SDS011;11624;53.250;7.456;2023-02-28T11:39:31;17.40;;;7.35;;
22916;SDS011;11624;53.250;7.456;2023-02-28T11:42:24;17.27;;;7.60;;
22916;SDS011;11624;53.250;7.456;2023-02-28T11:45:15;17.90;;;7.85;;
22916;SDS011;11624;53.250;7.456;2023-02-28T11:47:52;17.08;;;7.93;;
22916;SDS011;11624;53.250;7.456;2023-02-28T11:50:29;14.52;;;6.75;;
22916;SDS011;11624;53.250;7.456;2023-02-28T11:53:10;14.38;;;5.75;;
22916;SDS011;11624;53.250;7.456;2023-02-28T11:55:47;16.40;;;6.43;;
22916;SDS011;11624;53.250;7.456;2023-02-28T11:58:23;14.18;;;5.63;;
22916;SDS011;11624;53.250;7.456;2023-02-28T12:04:04;14.50;;;5.70;;
22916;SDS011;11624;53.250;7.456;2023-02-28T12:06:44;12.85;;;5.38;;
22916;SDS011;11624;53.250;7.456;2023-02-28T12:12:18;13.60;;;5.57;;
22916;SDS011;11624;53.250;7.456;2023-02-28T12:15:01;13.27;;;5.35;;
22916;SDS011;11624;53.250;7.456;2023-02-28T12:17:58;13.68;;;4.97;;
22916;SDS011;11624;53.250;7.456;2023-02-28T12:20:36;13.55;;;5.90;;
22916;SDS011;11624;53.250;7.456;2023-02-28T12:23:19;13.65;;;5.53;;
22916;SDS011;11624;53.250;7.456;2023-02-28T12:26:00;13.02;;;5.70;;
22916;SDS011;11624;53.250;7.456;2023-02-28T12:28:37;13.70;;;5.10;;
22916;SDS011;11624;53.250;7.456;2023-02-28T12:31:10;15.07;;;5.78;;
22916;SDS011;11624;53.250;7.456;2023-02-28T12:33:45;11.60;;;4.95;;
22916;SDS011;11624;53.250;7.456;2023-02-28T12:36:19;13.13;;;5.40;;
22916;SDS011;11624;53.250;7.456;2023-02-28T12:38:51;14.00;;;6.10;;
22916;SDS011;11624;53.250;7.456;2023-02-28T12:41:25;13.98;;;6.20;;
22916;SDS011;11624;53.250;7.456;2023-02-28T12:43:58;14.75;;;5.80;;
22916;SDS011;11624;53.250;7.456;2023-02-28T12:46:33;11.60;;;4.95;;
22916;SDS011;11624;53.250;7.456;2023-02-28T12:49:06;11.10;;;4.65;;
22916;SDS011;11624;53.250;7.456;2023-02-28T12:51:38;12.75;;;5.35;;
22916;SDS011;11624;53.250;7.456;2023-02-28T12:54:12;15.98;;;5.80;;
22916;SDS011;11624;53.250;7.456;2023-02-28T12:56:47;13.48;;;5.53;;
22916;SDS011;11624;53.250;7.456;2023-02-28T12:59:22;13.23;;;5.28;;
22916;SDS011;11624;53.250;7.456;2023-02-28T13:01:57;13.18;;;5.10;;
22916;SDS011;11624;53.250;7.456;2023-02-28T13:04:42;11.75;;;4.68;;
22916;SDS011;11624;53.250;7.456;2023-02-28T13:07:29;12.73;;;4.97;;
22916;SDS011;11624;53.250;7.456;2023-02-28T13:10:08;12.93;;;4.65;;
22916;SDS011;11624;53.250;7.456;2023-02-28T13:12:37;11.30;;;4.72;;
22916;SDS011;11624;53.250;7.456;2023-02-28T13:15:17;12.93;;;5.10;;
22916;SDS011;11624;53.250;7.456;2023-02-28T13:17:52;10.75;;;4.35;;
22916;SDS011;11624;53.250;7.456;2023-02-28T13:20:23;12.35;;;4.50;;
22916;SDS011;11624;53.250;7.456;2023-02-28T13:22:53;10.43;;;4.28;;
22916;SDS011;11624;53.250;7.456;2023-02-28T13:34:40;12.05;;;4.63;;
22916;SDS011;11624;53.250;7.456;2023-02-28T13:40:27;8.95;;;4.22;;
22916;SDS011;11624;53.250;7.456;2023-02-28T13:43:05;10.35;;;4.20;;
22916;SDS011;11624;53.250;7.456;2023-02-28T13:45:36;13.35;;;4.65;;
22916;SDS011;11624;53.250;7.456;2023-02-28T13:48:15;11.60;;;4.88;;
22916;SDS011;11624;53.250;7.456;2023-02-28T13:50:45;12.30;;;4.95;;
22916;SDS011;11624;53.250;7.456;2023-02-28T13:53:26;12.82;;;5.03;;
22916;SDS011;11624;53.250;7.456;2023-02-28T13:56:10;11.80;;;4.40;;
22916;SDS011;11624;53.250;7.456;2023-02-28T13:58:53;11.43;;;4.55;;
22916;SDS011;11624;53.250;7.456;2023-02-28T14:01:46;10.35;;;4.40;;
22916;SDS011;11624;53.250;7.456;2023-02-28T14:07:16;11.88;;;4.60;;
22916;SDS011;11624;53.250;7.456;2023-02-28T14:09:51;14.90;;;4.63;;
22916;SDS011;11624;53.250;7.456;2023-02-28T14:15:26;11.43;;;4.65;;
22916;SDS011;11624;53.250;7.456;2023-02-28T14:18:14;10.48;;;4.78;;
22916;SDS011;11624;53.250;7.456;2023-02-28T14:20:47;11.00;;;4.80;;
22916;SDS011;11624;53.250;7.456;2023-02-28T14:23:19;12.27;;;4.63;;
22916;SDS011;11624;53.250;7.456;2023-02-28T14:26:07;11.95;;;5.10;;
22916;SDS011;11624;53.250;7.456;2023-02-28T14:28:49;13.38;;;5.20;;
22916;SDS011;11624;53.250;7.456;2023-02-28T14:31:29;12.57;;;4.72;;
22916;SDS011;11624;53.250;7.456;2023-02-28T14:34:05;11.80;;;5.35;;
22916;SDS011;11624;53.250;7.456;2023-02-28T14:36:48;11.48;;;4.30;;
22916;SDS011;11624;53.250;7.456;2023-02-28T14:39:19;11.73;;;5.05;;
22916;SDS011;11624;53.250;7.456;2023-02-28T14:41:51;12.52;;;4.95;;
22916;SDS011;11624;53.250;7.456;2023-02-28T14:44:19;12.00;;;4.72;;
22916;SDS011;11624;53.250;7.456;2023-02-28T14:46:50;13.98;;;4.60;;
22916;SDS011;11624;53.250;7.456;2023-02-28T14:49:21;12.20;;;4.57;;
22916;SDS011;11624;53.250;7.456;2023-02-28T14:52:01;12.18;;;4.93;;
22916;SDS011;11624;53.250;7.456;2023-02-28T14:54:32;11.85;;;4.68;;
22916;SDS011;11624;53.250;7.456;2023-02-28T14:57:02;13.07;;;5.28;;
22916;SDS011;11624;53.250;7.456;2023-02-28T14:59:32;13.63;;;5.53;;
22916;SDS011;11624;53.250;7.456;2023-02-28T15:02:17;13.50;;;5.53;;
22916;SDS011;11624;53.250;7.456;2023-02-28T15:04:55;13.18;;;4.88;;
22916;SDS011;11624;53.250;7.456;2023-02-28T15:07:24;14.52;;;4.95;;
22916;SDS011;11624;53.250;7.456;2023-02-28T15:10:09;14.65;;;5.43;;
22916;SDS011;11624;53.250;7.456;2023-02-28T15:12:40;12.35;;;5.18;;
22916;SDS011;11624;53.250;7.456;2023-02-28T15:15:15;14.88;;;5.50;;
22916;SDS011;11624;53.250;7.456;2023-02-28T15:17:45;16.20;;;5.20;;
22916;SDS011;11624;53.250;7.456;2023-02-28T15:20:16;12.10;;;4.55;;
22916;SDS011;11624;53.250;7.456;2023-02-28T15:22:46;13.73;;;5.18;;
22916;SDS011;11624;53.250;7.456;2023-02-28T15:25:17;12.93;;;4.80;;
22916;SDS011;11624;53.250;7.456;2023-02-28T15:27:49;9.70;;;4.10;;
22916;SDS011;11624;53.250;7.456;2023-02-28T15:30:21;11.90;;;4.72;;
22916;SDS011;11624;53.250;7.456;2023-02-28T15:33:02;11.27;;;4.47;;
22916;SDS011;11624;53.250;7.456;2023-02-28T15:35:32;11.40;;;4.28;;